Accueil
METAR-TAF:

METAR-TAF

Aéroports :

Southern Illinois Airport

Carbondale / Murphysboro, Illinois, États-Unis

latitude: 37-46-59N, longitude: 089-14-42W, altitude: 125 m

Observation

Le bulletin a été fait il y a 15 minutes, à 20:52 UTC
Vent calme
Température 26°C
Humidité 79%
Pression 1016 hPa
Visibilité: 16.1 km
Ciel clair

METAR: KMDH 122052Z 00000KT 10SM CLR 26/22 A3001 RMK AO2 LTG DSNT SE SLP160 60001 T02560217 58013

Heure: 16:07 (21:07 UTC)


TAF: absent

Observations et prévisions météorologiques de plus de 4000 aéroports (messages METAR et TAF).

Les stations disponibles sont représentées par des disques jaunes et rouges sur la carte.

Passer la souris dessus pour voir le nom de la station.

Cliquer dessus pour voir les observations et prévisions météorologiques.

Pour changer de carte: cliquez sur les boutons verts avec une croix noire pour zoomer, sur le bouton vert avec un tiret pour effectuer un zoom arrière, ou sur les flèches vertes pour les cartes adjacentes.


METAR-TAF: